sensor_id;sensor_type;location;lat;lon;timestamp;pressure;altitude;pressure_sealevel;temperature;humidity
30554;BME280;17335;50.720;7.452;2023-04-19T00:01:15;100150.94;;;10.47;100.00
30554;BME280;17335;50.720;7.452;2023-04-19T00:03:42;100144.44;;;10.38;100.00
30554;BME280;17335;50.720;7.452;2023-04-19T00:06:08;100141.63;;;10.40;100.00
30554;BME280;17335;50.720;7.452;2023-04-19T00:08:35;100141.28;;;10.33;100.00
30554;BME280;17335;50.720;7.452;2023-04-19T00:11:02;100139.06;;;10.27;100.00
30554;BME280;17335;50.720;7.452;2023-04-19T00:13:28;100148.97;;;10.15;100.00
30554;BME280;17335;50.720;7.452;2023-04-19T00:15:55;100144.44;;;10.16;100.00
30554;BME280;17335;50.720;7.452;2023-04-19T00:18:22;100147.72;;;10.19;100.00
30554;BME280;17335;50.720;7.452;2023-04-19T00:20:48;100136.16;;;10.19;100.00
30554;BME280;17335;50.720;7.452;2023-04-19T00:23:15;100145.53;;;10.24;100.00
30554;BME280;17335;50.720;7.452;2023-04-19T00:25:42;100140.63;;;10.29;100.00
30554;BME280;17335;50.720;7.452;2023-04-19T00:28:08;100146.53;;;10.23;100.00
30554;BME280;17335;50.720;7.452;2023-04-19T00:30:35;100138.94;;;10.17;100.00
30554;BME280;17335;50.720;7.452;2023-04-19T00:33:01;100137.88;;;10.20;100.00
30554;BME280;17335;50.720;7.452;2023-04-19T00:35:28;100135.78;;;10.23;100.00
30554;BME280;17335;50.720;7.452;2023-04-19T00:37:55;100140.91;;;10.15;100.00
30554;BME280;17335;50.720;7.452;2023-04-19T00:40:22;100136.63;;;10.12;100.00
30554;BME280;17335;50.720;7.452;2023-04-19T00:42:49;100141.25;;;10.10;100.00
30554;BME280;17335;50.720;7.452;2023-04-19T00:45:16;100125.16;;;10.10;100.00
30554;BME280;17335;50.720;7.452;2023-04-19T00:47:42;100125.44;;;10.07;100.00
30554;BME280;17335;50.720;7.452;2023-04-19T00:50:09;100131.50;;;9.98;100.00
30554;BME280;17335;50.720;7.452;2023-04-19T00:52:36;100120.53;;;9.90;100.00
30554;BME280;17335;50.720;7.452;2023-04-19T00:55:03;100126.50;;;9.82;100.00
30554;BME280;17335;50.720;7.452;2023-04-19T00:57:30;100122.00;;;9.83;100.00
30554;BME280;17335;50.720;7.452;2023-04-19T00:59:56;100115.41;;;9.75;100.00
30554;BME280;17335;50.720;7.452;2023-04-19T01:02:24;100120.53;;;9.67;100.00
30554;BME280;17335;50.720;7.452;2023-04-19T01:04:51;100117.84;;;9.56;100.00
30554;BME280;17335;50.720;7.452;2023-04-19T01:07:18;100116.22;;;9.53;100.00
30554;BME280;17335;50.720;7.452;2023-04-19T01:09:46;100117.56;;;9.48;100.00
30554;BME280;17335;50.720;7.452;2023-04-19T01:12:13;100120.38;;;9.46;100.00
30554;BME280;17335;50.720;7.452;2023-04-19T01:14:39;100118.91;;;9.42;100.00
30554;BME280;17335;50.720;7.452;2023-04-19T01:17:06;100124.09;;;9.32;100.00
30554;BME280;17335;50.720;7.452;2023-04-19T01:19:34;100129.31;;;9.23;100.00
30554;BME280;17335;50.720;7.452;2023-04-19T01:22:01;100119.53;;;9.10;100.00
30554;BME280;17335;50.720;7.452;2023-04-19T01:24:29;100118.09;;;9.17;100.00
30554;BME280;17335;50.720;7.452;2023-04-19T01:26:56;100120.75;;;9.06;100.00
30554;BME280;17335;50.720;7.452;2023-04-19T01:29:23;100121.81;;;9.04;100.00
30554;BME280;17335;50.720;7.452;2023-04-19T01:31:49;100117.78;;;8.98;100.00
30554;BME280;17335;50.720;7.452;2023-04-19T01:34:19;100111.69;;;8.96;100.00
30554;BME280;17335;50.720;7.452;2023-04-19T01:36:45;100119.09;;;8.92;100.00
30554;BME280;17335;50.720;7.452;2023-04-19T01:39:12;100109.81;;;8.85;100.00
30554;BME280;17335;50.720;7.452;2023-04-19T01:41:39;100114.94;;;8.88;100.00
30554;BME280;17335;50.720;7.452;2023-04-19T01:44:05;100113.34;;;8.86;100.00
30554;BME280;17335;50.720;7.452;2023-04-19T01:46:32;100111.06;;;8.92;100.00
30554;BME280;17335;50.720;7.452;2023-04-19T01:48:59;100108.78;;;8.75;100.00
30554;BME280;17335;50.720;7.452;2023-04-19T01:51:25;100105.25;;;8.74;100.00
30554;BME280;17335;50.720;7.452;2023-04-19T01:53:51;100112.16;;;8.66;100.00
30554;BME280;17335;50.720;7.452;2023-04-19T01:56:20;100097.97;;;8.52;100.00
30554;BME280;17335;50.720;7.452;2023-04-19T01:58:49;100103.22;;;8.41;100.00
30554;BME280;17335;50.720;7.452;2023-04-19T02:01:16;100104.88;;;8.31;100.00
30554;BME280;17335;50.720;7.452;2023-04-19T02:03:43;100111.63;;;8.23;100.00
30554;BME280;17335;50.720;7.452;2023-04-19T02:06:11;100108.53;;;8.17;100.00
30554;BME280;17335;50.720;7.452;2023-04-19T02:08:41;100113.25;;;8.13;100.00
30554;BME280;17335;50.720;7.452;2023-04-19T02:11:09;100099.59;;;8.05;100.00
30554;BME280;17335;50.720;7.452;2023-04-19T02:13:36;100103.66;;;7.98;100.00
30554;BME280;17335;50.720;7.452;2023-04-19T02:16:03;100105.66;;;7.94;100.00
30554;BME280;17335;50.720;7.452;2023-04-19T02:18:31;100104.41;;;7.87;100.00
30554;BME280;17335;50.720;7.452;2023-04-19T02:20:59;100099.16;;;7.85;100.00
30554;BME280;17335;50.720;7.452;2023-04-19T02:23:26;100107.97;;;7.87;100.00
30554;BME280;17335;50.720;7.452;2023-04-19T02:25:52;100100.16;;;7.84;100.00
30554;BME280;17335;50.720;7.452;2023-04-19T02:28:19;100100.88;;;7.86;100.00
30554;BME280;17335;50.720;7.452;2023-04-19T02:30:46;100105.19;;;7.89;100.00
30554;BME280;17335;50.720;7.452;2023-04-19T02:33:13;100105.81;;;7.93;100.00
30554;BME280;17335;50.720;7.452;2023-04-19T02:35:40;100103.66;;;7.98;100.00
30554;BME280;17335;50.720;7.452;2023-04-19T02:38:07;100112.63;;;7.97;100.00
30554;BME280;17335;50.720;7.452;2023-04-19T02:40:33;100096.91;;;7.92;100.00
30554;BME280;17335;50.720;7.452;2023-04-19T02:43:00;100101.38;;;8.04;100.00
30554;BME280;17335;50.720;7.452;2023-04-19T02:45:27;100098.69;;;8.17;100.00
30554;BME280;17335;50.720;7.452;2023-04-19T02:47:54;100108.19;;;8.21;100.00
30554;BME280;17335;50.720;7.452;2023-04-19T02:50:20;100099.91;;;8.13;100.00
30554;BME280;17335;50.720;7.452;2023-04-19T02:52:47;100110.06;;;8.08;100.00
30554;BME280;17335;50.720;7.452;2023-04-19T02:55:13;100098.69;;;8.04;100.00
30554;BME280;17335;50.720;7.452;2023-04-19T02:57:40;100098.06;;;8.01;100.00
30554;BME280;17335;50.720;7.452;2023-04-19T03:00:07;100097.53;;;7.96;100.00
30554;BME280;17335;50.720;7.452;2023-04-19T03:02:34;100096.16;;;8.03;100.00
30554;BME280;17335;50.720;7.452;2023-04-19T03:05:01;100107.16;;;8.11;100.00
30554;BME280;17335;50.720;7.452;2023-04-19T03:07:28;100098.28;;;8.11;100.00
30554;BME280;17335;50.720;7.452;2023-04-19T03:09:54;100099.16;;;8.48;100.00
30554;BME280;17335;50.720;7.452;2023-04-19T03:12:21;100101.38;;;8.54;100.00
30554;BME280;17335;50.720;7.452;2023-04-19T03:14:47;100092.38;;;8.55;100.00
30554;BME280;17335;50.720;7.452;2023-04-19T03:17:14;100093.31;;;8.67;100.00
30554;BME280;17335;50.720;7.452;2023-04-19T03:19:41;100092.59;;;8.76;100.00
30554;BME280;17335;50.720;7.452;2023-04-19T03:22:08;100092.28;;;8.81;100.00
30554;BME280;17335;50.720;7.452;2023-04-19T03:24:34;100089.88;;;8.89;100.00
30554;BME280;17335;50.720;7.452;2023-04-19T03:27:03;100097.19;;;8.98;100.00
30554;BME280;17335;50.720;7.452;2023-04-19T03:29:29;100092.97;;;9.07;100.00
30554;BME280;17335;50.720;7.452;2023-04-19T03:31:56;100093.38;;;9.14;100.00
30554;BME280;17335;50.720;7.452;2023-04-19T03:34:23;100089.72;;;9.15;100.00
30554;BME280;17335;50.720;7.452;2023-04-19T03:36:50;100090.72;;;9.25;100.00
30554;BME280;17335;50.720;7.452;2023-04-19T03:39:17;100091.22;;;9.30;100.00
30554;BME280;17335;50.720;7.452;2023-04-19T03:41:43;100084.41;;;9.37;100.00
30554;BME280;17335;50.720;7.452;2023-04-19T03:44:10;100079.06;;;9.37;100.00
30554;BME280;17335;50.720;7.452;2023-04-19T03:46:36;100074.16;;;9.31;100.00
30554;BME280;17335;50.720;7.452;2023-04-19T03:49:04;100066.84;;;9.33;100.00
30554;BME280;17335;50.720;7.452;2023-04-19T03:51:30;100070.16;;;9.37;100.00
30554;BME280;17335;50.720;7.452;2023-04-19T03:53:57;100072.84;;;9.37;100.00
30554;BME280;17335;50.720;7.452;2023-04-19T03:56:23;100060.53;;;9.34;100.00
30554;BME280;17335;50.720;7.452;2023-04-19T03:58:51;100059.81;;;9.32;100.00
30554;BME280;17335;50.720;7.452;2023-04-19T04:01:21;100063.94;;;9.25;100.00
30554;BME280;17335;50.720;7.452;2023-04-19T04:03:48;100073.16;;;9.21;100.00
30554;BME280;17335;50.720;7.452;2023-04-19T04:06:15;100072.59;;;9.29;100.00
30554;BME280;17335;50.720;7.452;2023-04-19T04:08:41;100077.94;;;9.29;100.00
30554;BME280;17335;50.720;7.452;2023-04-19T04:11:08;100079.06;;;9.37;100.00
30554;BME280;17335;50.720;7.452;2023-04-19T04:13:35;100081.00;;;9.35;100.00
30554;BME280;17335;50.720;7.452;2023-04-19T04:16:01;100076.72;;;9.33;100.00
30554;BME280;17335;50.720;7.452;2023-04-19T04:18:29;100080.91;;;9.37;100.00
30554;BME280;17335;50.720;7.452;2023-04-19T04:20:56;100076.38;;;9.37;100.00
30554;BME280;17335;50.720;7.452;2023-04-19T04:23:24;100079.91;;;9.38;100.00
30554;BME280;17335;50.720;7.452;2023-04-19T04:26:01;100078.81;;;9.41;100.00
30554;BME280;17335;50.720;7.452;2023-04-19T04:28:28;100077.00;;;9.41;100.00
30554;BME280;17335;50.720;7.452;2023-04-19T04:30:55;100080.28;;;9.45;100.00
30554;BME280;17335;50.720;7.452;2023-04-19T04:33:28;100080.00;;;9.36;100.00
30554;BME280;17335;50.720;7.452;2023-04-19T04:35:55;100078.81;;;9.41;100.00
30554;BME280;17335;50.720;7.452;2023-04-19T04:38:23;100086.75;;;9.42;100.00
30554;BME280;17335;50.720;7.452;2023-04-19T04:40:56;100077.38;;;9.48;100.00
30554;BME280;17335;50.720;7.452;2023-04-19T04:43:24;100073.97;;;9.46;100.00
30554;BME280;17335;50.720;7.452;2023-04-19T04:45:52;100071.50;;;9.43;100.00
30554;BME280;17335;50.720;7.452;2023-04-19T04:48:22;100075.03;;;9.43;100.00
30554;BME280;17335;50.720;7.452;2023-04-19T04:50:49;100062.75;;;9.41;100.00
30554;BME280;17335;50.720;7.452;2023-04-19T04:53:15;100076.03;;;9.42;100.00
30554;BME280;17335;50.720;7.452;2023-04-19T04:55:42;100081.38;;;9.42;100.00
30554;BME280;17335;50.720;7.452;2023-04-19T04:58:09;100072.69;;;9.38;100.00
30554;BME280;17335;50.720;7.452;2023-04-19T05:00:36;100067.38;;;9.50;100.00
30554;BME280;17335;50.720;7.452;2023-04-19T05:03:02;100055.56;;;9.52;100.00
30554;BME280;17335;50.720;7.452;2023-04-19T05:05:29;100064.72;;;9.61;100.00
30554;BME280;17335;50.720;7.452;2023-04-19T05:07:56;100068.59;;;9.57;100.00
30554;BME280;17335;50.720;7.452;2023-04-19T05:10:23;100070.53;;;9.55;100.00
30554;BME280;17335;50.720;7.452;2023-04-19T05:12:49;100064.34;;;9.66;100.00
30554;BME280;17335;50.720;7.452;2023-04-19T05:15:16;100059.25;;;9.63;100.00
30554;BME280;17335;50.720;7.452;2023-04-19T05:17:42;100054.97;;;9.60;100.00
30554;BME280;17335;50.720;7.452;2023-04-19T05:20:09;100061.41;;;9.69;100.00
30554;BME280;17335;50.720;7.452;2023-04-19T05:22:36;100057.16;;;9.66;100.00
30554;BME280;17335;50.720;7.452;2023-04-19T05:25:03;100058.47;;;9.61;100.00
30554;BME280;17335;50.720;7.452;2023-04-19T05:27:30;100058.84;;;9.67;100.00
30554;BME280;17335;50.720;7.452;2023-04-19T05:29:56;100057.63;;;9.60;100.00
30554;BME280;17335;50.720;7.452;2023-04-19T05:32:23;100058.59;;;9.59;100.00
30554;BME280;17335;50.720;7.452;2023-04-19T05:34:50;100056.56;;;9.63;100.00
30554;BME280;17335;50.720;7.452;2023-04-19T05:37:17;100058.38;;;9.73;100.00
30554;BME280;17335;50.720;7.452;2023-04-19T05:39:43;100051.81;;;9.66;100.00
30554;BME280;17335;50.720;7.452;2023-04-19T05:42:10;100046.94;;;9.71;100.00
30554;BME280;17335;50.720;7.452;2023-04-19T05:44:37;100053.38;;;9.69;100.00
30554;BME280;17335;50.720;7.452;2023-04-19T05:47:03;100046.91;;;9.60;100.00
30554;BME280;17335;50.720;7.452;2023-04-19T05:49:30;100041.31;;;9.74;100.00
30554;BME280;17335;50.720;7.452;2023-04-19T05:51:57;100041.19;;;9.65;100.00
30554;BME280;17335;50.720;7.452;2023-04-19T05:54:23;100032.28;;;9.64;100.00
30554;BME280;17335;50.720;7.452;2023-04-19T05:56:50;100037.91;;;9.72;100.00
30554;BME280;17335;50.720;7.452;2023-04-19T05:59:17;100043.25;;;9.72;100.00
30554;BME280;17335;50.720;7.452;2023-04-19T06:01:43;100037.91;;;9.72;100.00
30554;BME280;17335;50.720;7.452;2023-04-19T06:04:10;100045.81;;;9.74;100.00
30554;BME280;17335;50.720;7.452;2023-04-19T06:06:37;100038.88;;;9.83;100.00
30554;BME280;17335;50.720;7.452;2023-04-19T06:09:03;100041.06;;;9.77;100.00
30554;BME280;17335;50.720;7.452;2023-04-19T06:11:30;100042.63;;;9.91;100.00
30554;BME280;17335;50.720;7.452;2023-04-19T06:14:09;100045.34;;;9.80;100.00
30554;BME280;17335;50.720;7.452;2023-04-19T06:16:36;100042.25;;;9.85;100.00
30554;BME280;17335;50.720;7.452;2023-04-19T06:19:02;100049.72;;;9.81;100.00
30554;BME280;17335;50.720;7.452;2023-04-19T06:21:30;100044.72;;;9.88;100.00
30554;BME280;17335;50.720;7.452;2023-04-19T06:23:57;100040.31;;;9.98;100.00
30554;BME280;17335;50.720;7.452;2023-04-19T06:26:24;100040.56;;;9.95;100.00
30554;BME280;17335;50.720;7.452;2023-04-19T06:28:51;100041.53;;;10.05;100.00
30554;BME280;17335;50.720;7.452;2023-04-19T06:31:18;100045.41;;;10.12;100.00
30554;BME280;17335;50.720;7.452;2023-04-19T06:33:45;100048.31;;;10.21;100.00
30554;BME280;17335;50.720;7.452;2023-04-19T06:36:12;100034.16;;;10.30;100.00
30554;BME280;17335;50.720;7.452;2023-04-19T06:38:38;100036.09;;;10.28;100.00
30554;BME280;17335;50.720;7.452;2023-04-19T06:41:06;100030.00;;;10.26;100.00
30554;BME280;17335;50.720;7.452;2023-04-19T06:43:34;100028.91;;;10.28;100.00
30554;BME280;17335;50.720;7.452;2023-04-19T06:46:01;100024.88;;;10.45;100.00
30554;BME280;17335;50.720;7.452;2023-04-19T06:48:29;100025.59;;;10.47;100.00
30554;BME280;17335;50.720;7.452;2023-04-19T06:50:56;100025.94;;;10.54;100.00
30554;BME280;17335;50.720;7.452;2023-04-19T06:53:23;100023.25;;;10.54;100.00
30554;BME280;17335;50.720;7.452;2023-04-19T06:56:00;100026.59;;;10.67;100.00
30554;BME280;17335;50.720;7.452;2023-04-19T06:58:27;100014.78;;;10.70;100.00
30554;BME280;17335;50.720;7.452;2023-04-19T07:00:53;100020.84;;;10.72;100.00
30554;BME280;17335;50.720;7.452;2023-04-19T07:03:20;100010.56;;;10.77;100.00
30554;BME280;17335;50.720;7.452;2023-04-19T07:05:48;100026.94;;;10.74;100.00
30554;BME280;17335;50.720;7.452;2023-04-19T07:08:15;100015.22;;;10.75;100.00
30554;BME280;17335;50.720;7.452;2023-04-19T07:10:42;100010.06;;;10.83;100.00
30554;BME280;17335;50.720;7.452;2023-04-19T07:13:10;100011.03;;;10.82;100.00
30554;BME280;17335;50.720;7.452;2023-04-19T07:15:38;100010.72;;;10.76;100.00
30554;BME280;17335;50.720;7.452;2023-04-19T07:18:04;100007.03;;;10.77;100.00
30554;BME280;17335;50.720;7.452;2023-04-19T07:20:31;100001.00;;;10.84;100.00
30554;BME280;17335;50.720;7.452;2023-04-19T07:22:58;99994.00;;;10.93;100.00
30554;BME280;17335;50.720;7.452;2023-04-19T07:25:25;99992.09;;;11.05;100.00
30554;BME280;17335;50.720;7.452;2023-04-19T07:27:53;99995.09;;;11.33;100.00
30554;BME280;17335;50.720;7.452;2023-04-19T07:30:21;99993.13;;;11.35;100.00
30554;BME280;17335;50.720;7.452;2023-04-19T07:32:47;99985.66;;;11.38;100.00
30554;BME280;17335;50.720;7.452;2023-04-19T07:35:17;99988.28;;;11.29;100.00
30554;BME280;17335;50.720;7.452;2023-04-19T07:37:45;99983.72;;;11.19;100.00
30554;BME280;17335;50.720;7.452;2023-04-19T07:40:11;99983.25;;;11.14;100.00
30554;BME280;17335;50.720;7.452;2023-04-19T07:42:38;99975.53;;;11.21;100.00
30554;BME280;17335;50.720;7.452;2023-04-19T07:45:05;99978.50;;;11.27;100.00
30554;BME280;17335;50.720;7.452;2023-04-19T07:47:32;99976.19;;;11.44;100.00
30554;BME280;17335;50.720;7.452;2023-04-19T07:49:59;99977.09;;;11.54;100.00
30554;BME280;17335;50.720;7.452;2023-04-19T07:52:25;99967.22;;;11.64;100.00
30554;BME280;17335;50.720;7.452;2023-04-19T07:54:52;99964.38;;;11.66;100.00
30554;BME280;17335;50.720;7.452;2023-04-19T07:57:18;99959.25;;;11.94;100.00
30554;BME280;17335;50.720;7.452;2023-04-19T07:59:45;99967.25;;;11.84;100.00
30554;BME280;17335;50.720;7.452;2023-04-19T08:02:11;99959.91;;;11.86;100.00
30554;BME280;17335;50.720;7.452;2023-04-19T08:04:38;99961.94;;;11.94;100.00
30554;BME280;17335;50.720;7.452;2023-04-19T08:07:06;99954.44;;;11.97;100.00
30554;BME280;17335;50.720;7.452;2023-04-19T08:09:34;99951.78;;;12.07;100.00
30554;BME280;17335;50.720;7.452;2023-04-19T08:12:03;99947.53;;;12.14;100.00
30554;BME280;17335;50.720;7.452;2023-04-19T08:14:29;99952.22;;;12.12;100.00
30554;BME280;17335;50.720;7.452;2023-04-19T08:17:06;99950.09;;;12.16;100.00
30554;BME280;17335;50.720;7.452;2023-04-19T08:19:51;99948.69;;;12.31;100.00
30554;BME280;17335;50.720;7.452;2023-04-19T08:22:18;99940.91;;;12.38;100.00
30554;BME280;17335;50.720;7.452;2023-04-19T08:24:48;99939.31;;;12.45;100.00
30554;BME280;17335;50.720;7.452;2023-04-19T08:27:15;99933.09;;;12.45;100.00
30554;BME280;17335;50.720;7.452;2023-04-19T08:29:42;99938.59;;;12.63;100.00
30554;BME280;17335;50.720;7.452;2023-04-19T08:32:10;99930.81;;;12.50;100.00
30554;BME280;17335;50.720;7.452;2023-04-19T08:34:38;99928.69;;;12.34;100.00
30554;BME280;17335;50.720;7.452;2023-04-19T08:37:06;99935.63;;;12.46;100.00
30554;BME280;17335;50.720;7.452;2023-04-19T08:39:33;99934.47;;;12.68;100.00
30554;BME280;17335;50.720;7.452;2023-04-19T08:42:05;99931.63;;;12.70;100.00
30554;BME280;17335;50.720;7.452;2023-04-19T08:44:49;99927.34;;;12.87;100.00
30554;BME280;17335;50.720;7.452;2023-04-19T08:47:36;99925.97;;;12.83;100.00
30554;BME280;17335;50.720;7.452;2023-04-19T08:50:22;99932.47;;;12.80;100.00
30554;BME280;17335;50.720;7.452;2023-04-19T08:52:59;99927.53;;;12.56;100.00
30554;BME280;17335;50.720;7.452;2023-04-19T08:55:47;99922.59;;;12.51;100.00
30554;BME280;17335;50.720;7.452;2023-04-19T08:58:33;99929.09;;;12.68;100.00
30554;BME280;17335;50.720;7.452;2023-04-19T09:01:20;99920.72;;;12.62;100.00
30554;BME280;17335;50.720;7.452;2023-04-19T09:04:02;99914.63;;;12.69;100.00
30554;BME280;17335;50.720;7.452;2023-04-19T09:06:50;99905.50;;;13.00;100.00
30554;BME280;17335;50.720;7.452;2023-04-19T09:09:22;99907.34;;;13.27;100.00
30554;BME280;17335;50.720;7.452;2023-04-19T09:11:52;99898.28;;;13.38;100.00
30554;BME280;17335;50.720;7.452;2023-04-19T09:14:20;99900.22;;;13.45;100.00
30554;BME280;17335;50.720;7.452;2023-04-19T09:16:47;99902.25;;;13.34;100.00
30554;BME280;17335;50.720;7.452;2023-04-19T09:19:14;99901.56;;;13.22;100.00
30554;BME280;17335;50.720;7.452;2023-04-19T09:21:50;99902.47;;;13.12;100.00
30554;BME280;17335;50.720;7.452;2023-04-19T09:24:19;99902.28;;;13.24;100.00
30554;BME280;17335;50.720;7.452;2023-04-19T09:27:30;99885.34;;;13.04;100.00
30554;BME280;17335;50.720;7.452;2023-04-19T09:29:58;99887.78;;;13.25;100.00
30554;BME280;17335;50.720;7.452;2023-04-19T09:32:26;99885.84;;;13.17;100.00
30554;BME280;17335;50.720;7.452;2023-04-19T09:34:58;99881.84;;;13.21;100.00
30554;BME280;17335;50.720;7.452;2023-04-19T09:37:25;99884.13;;;13.16;100.00
30554;BME280;17335;50.720;7.452;2023-04-19T09:39:55;99888.34;;;13.28;100.00
30554;BME280;17335;50.720;7.452;2023-04-19T09:42:22;99898.47;;;13.17;100.00
30554;BME280;17335;50.720;7.452;2023-04-19T09:45:09;99889.63;;;12.97;100.00
30554;BME280;17335;50.720;7.452;2023-04-19T09:47:38;99887.22;;;12.84;100.00
30554;BME280;17335;50.720;7.452;2023-04-19T09:50:07;99877.28;;;12.94;100.00
30554;BME280;17335;50.720;7.452;2023-04-19T09:52:51;99876.56;;;12.92;100.00
30554;BME280;17335;50.720;7.452;2023-04-19T09:55:18;99881.19;;;13.09;100.00
30554;BME280;17335;50.720;7.452;2023-04-19T09:57:48;99868.81;;;13.17;99.93
30554;BME280;17335;50.720;7.452;2023-04-19T10:00:15;99880.41;;;13.27;95.62
30554;BME280;17335;50.720;7.452;2023-04-19T10:02:43;99874.59;;;13.31;91.84
30554;BME280;17335;50.720;7.452;2023-04-19T10:05:10;99871.16;;;13.39;92.32
30554;BME280;17335;50.720;7.452;2023-04-19T10:07:48;99870.25;;;13.48;97.43
30554;BME280;17335;50.720;7.452;2023-04-19T10:10:18;99875.34;;;13.52;97.46
30554;BME280;17335;50.720;7.452;2023-04-19T10:13:15;99862.56;;;13.72;100.00
30554;BME280;17335;50.720;7.452;2023-04-19T10:15:48;99861.97;;;13.96;93.52
30554;BME280;17335;50.720;7.452;2023-04-19T10:18:24;99861.91;;;14.05;86.95
30554;BME280;17335;50.720;7.452;2023-04-19T10:20:57;99860.13;;;14.32;92.66
30554;BME280;17335;50.720;7.452;2023-04-19T10:23:27;99854.97;;;14.47;86.74
30554;BME280;17335;50.720;7.452;2023-04-19T10:25:58;99851.22;;;14.40;72.65
30554;BME280;17335;50.720;7.452;2023-04-19T10:28:28;99853.47;;;14.26;75.89
30554;BME280;17335;50.720;7.452;2023-04-19T10:30:59;99852.03;;;14.14;69.46
30554;BME280;17335;50.720;7.452;2023-04-19T10:33:30;99843.84;;;14.06;65.78
30554;BME280;17335;50.720;7.452;2023-04-19T10:36:00;99845.34;;;14.18;67.52
30554;BME280;17335;50.720;7.452;2023-04-19T10:38:48;99844.63;;;13.98;72.19
30554;BME280;17335;50.720;7.452;2023-04-19T10:41:18;99843.06;;;13.96;71.66
30554;BME280;17335;50.720;7.452;2023-04-19T10:43:47;99843.16;;;14.22;71.49
30554;BME280;17335;50.720;7.452;2023-04-19T10:52:07;99830.13;;;14.17;67.55
30554;BME280;17335;50.720;7.452;2023-04-19T10:54:32;99817.13;;;14.39;67.40
30554;BME280;17335;50.720;7.452;2023-04-19T10:57:09;99803.28;;;14.42;69.03
30554;BME280;17335;50.720;7.452;2023-04-19T10:59:37;99812.59;;;14.66;67.19
30554;BME280;17335;50.720;7.452;2023-04-19T11:07:14;99810.13;;;14.54;53.01
30554;BME280;17335;50.720;7.452;2023-04-19T11:09:44;99804.00;;;14.44;51.88
30554;BME280;17335;50.720;7.452;2023-04-19T11:12:18;99802.50;;;14.50;53.97
30554;BME280;17335;50.720;7.452;2023-04-19T11:14:47;99801.34;;;14.52;50.93
30554;BME280;17335;50.720;7.452;2023-04-19T11:20:05;99802.97;;;14.63;51.72
30554;BME280;17335;50.720;7.452;2023-04-19T11:27:33;99788.97;;;14.68;52.95
30554;BME280;17335;50.720;7.452;2023-04-19T11:30:04;99780.59;;;14.79;52.33
30554;BME280;17335;50.720;7.452;2023-04-19T11:32:32;99776.44;;;14.93;52.68
30554;BME280;17335;50.720;7.452;2023-04-19T11:35:06;99764.06;;;14.82;53.76
30554;BME280;17335;50.720;7.452;2023-04-19T11:37:35;99760.84;;;14.87;50.69
30554;BME280;17335;50.720;7.452;2023-04-19T11:40:02;99754.00;;;15.09;53.38
30554;BME280;17335;50.720;7.452;2023-04-19T11:42:31;99753.88;;;15.18;53.65
30554;BME280;17335;50.720;7.452;2023-04-19T11:44:58;99740.88;;;15.38;56.30
30554;BME280;17335;50.720;7.452;2023-04-19T11:47:26;99741.94;;;15.54;54.35
30554;BME280;17335;50.720;7.452;2023-04-19T11:49:55;99726.03;;;15.67;53.93
30554;BME280;17335;50.720;7.452;2023-04-19T11:52:24;99732.50;;;15.66;55.80
30554;BME280;17335;50.720;7.452;2023-04-19T11:54:54;99734.66;;;15.46;54.46
30554;BME280;17335;50.720;7.452;2023-04-19T11:57:30;99741.88;;;15.21;57.38
30554;BME280;17335;50.720;7.452;2023-04-19T12:00:07;99727.91;;;15.42;55.74
30554;BME280;17335;50.720;7.452;2023-04-19T12:02:39;99742.47;;;14.98;57.43
30554;BME280;17335;50.720;7.452;2023-04-19T12:05:15;99741.34;;;14.75;55.33
30554;BME280;17335;50.720;7.452;2023-04-19T12:08:02;99730.03;;;14.71;60.57
30554;BME280;17335;50.720;7.452;2023-04-19T12:10:33;99736.16;;;14.73;57.86
30554;BME280;17335;50.720;7.452;2023-04-19T12:12:59;99740.88;;;14.79;53.90
30554;BME280;17335;50.720;7.452;2023-04-19T12:15:42;99728.50;;;14.69;52.94
30554;BME280;17335;50.720;7.452;2023-04-19T12:18:09;99720.59;;;14.41;51.64
30554;BME280;17335;50.720;7.452;2023-04-19T12:20:37;99725.63;;;14.36;51.92
30554;BME280;17335;50.720;7.452;2023-04-19T12:23:04;99716.16;;;14.40;50.68
30554;BME280;17335;50.720;7.452;2023-04-19T12:25:33;99704.44;;;14.84;52.70
30554;BME280;17335;50.720;7.452;2023-04-19T12:28:02;99718.75;;;14.76;47.34
30554;BME280;17335;50.720;7.452;2023-04-19T12:30:29;99708.25;;;14.73;49.23
30554;BME280;17335;50.720;7.452;2023-04-19T12:32:57;99714.94;;;14.95;49.44
30554;BME280;17335;50.720;7.452;2023-04-19T12:35:25;99710.88;;;14.91;47.97
30554;BME280;17335;50.720;7.452;2023-04-19T12:37:57;99712.19;;;14.87;43.83
30554;BME280;17335;50.720;7.452;2023-04-19T12:40:25;99700.56;;;14.94;46.42
30554;BME280;17335;50.720;7.452;2023-04-19T12:42:52;99697.88;;;14.94;43.90
30554;BME280;17335;50.720;7.452;2023-04-19T12:45:19;99694.69;;;15.15;45.19
30554;BME280;17335;50.720;7.452;2023-04-19T12:47:47;99691.53;;;15.28;41.98
30554;BME280;17335;50.720;7.452;2023-04-19T12:50:14;99701.47;;;15.28;40.11
30554;BME280;17335;50.720;7.452;2023-04-19T12:52:47;99661.09;;;15.34;41.33
30554;BME280;17335;50.720;7.452;2023-04-19T12:55:14;99681.53;;;15.45;39.11
30554;BME280;17335;50.720;7.452;2023-04-19T12:57:41;99684.28;;;15.86;43.12
30554;BME280;17335;50.720;7.452;2023-04-19T13:00:08;99696.47;;;15.57;38.68
30554;BME280;17335;50.720;7.452;2023-04-19T13:02:36;99687.84;;;15.79;40.63
30554;BME280;17335;50.720;7.452;2023-04-19T13:05:04;99691.88;;;15.74;38.85
30554;BME280;17335;50.720;7.452;2023-04-19T13:07:31;99681.94;;;15.75;37.91
30554;BME280;17335;50.720;7.452;2023-04-19T13:09:58;99683.06;;;15.64;37.36
30554;BME280;17335;50.720;7.452;2023-04-19T13:12:24;99680.38;;;15.72;37.32
30554;BME280;17335;50.720;7.452;2023-04-19T13:14:51;99666.50;;;15.34;36.40
30554;BME280;17335;50.720;7.452;2023-04-19T13:17:19;99680.69;;;15.20;35.98